createdAt,value
2022-10-30T00:01:26.433Z,56.10
2022-10-30T00:03:53.214Z,56.20
2022-10-30T00:06:20.077Z,56.20
2022-10-30T00:08:46.806Z,56.10
2022-10-30T00:11:14.882Z,56.60
2022-10-30T00:13:43.523Z,56.80
2022-10-30T00:16:10.669Z,56.80
2022-10-30T00:18:38.010Z,56.90
2022-10-30T00:21:06.498Z,56.60
2022-10-30T00:23:33.230Z,56.70
2022-10-30T00:26:03.345Z,56.60
2022-10-30T00:28:31.606Z,56.50
2022-10-30T00:30:59.744Z,56.50
2022-10-30T00:33:26.492Z,56.30
2022-10-30T00:35:53.180Z,56.60
2022-10-30T00:38:19.992Z,56.50
2022-10-30T00:40:46.798Z,56.60
2022-10-30T00:43:32.746Z,56.40
2022-10-30T00:46:04.890Z,56.50
2022-10-30T00:48:32.222Z,56.60
2022-10-30T00:51:01.078Z,56.60
2022-10-30T00:53:30.067Z,56.60
2022-10-30T00:56:00.550Z,56.60
2022-10-30T00:58:32.983Z,56.60
2022-10-30T01:01:04.860Z,56.90
2022-10-30T01:03:33.156Z,57.00
2022-10-30T01:06:02.806Z,56.70
2022-10-30T01:08:30.355Z,56.80
2022-10-30T01:10:58.126Z,56.40
2022-10-30T01:13:26.160Z,56.60
2022-10-30T01:16:08.946Z,56.60
2022-10-30T01:18:46.040Z,56.70
2022-10-30T01:21:22.019Z,56.90
2022-10-30T01:23:58.915Z,56.70
2022-10-30T01:26:38.449Z,56.50
2022-10-30T01:29:26.551Z,56.90
2022-10-30T01:32:05.726Z,56.70
2022-10-30T01:37:19.623Z,57.10
2022-10-30T01:39:46.381Z,57.00
2022-10-30T01:42:48.733Z,57.00
2022-10-30T01:45:26.642Z,56.90
2022-10-30T01:48:24.968Z,56.50
2022-10-30T01:50:56.933Z,56.50
2022-10-30T01:53:36.909Z,57.00
2022-10-30T01:56:18.542Z,56.60
2022-10-30T01:58:51.325Z,56.50
2022-10-30T02:01:18.871Z,56.40
2022-10-30T02:03:47.491Z,56.20
2022-10-30T02:06:14.377Z,56.40
2022-10-30T02:08:41.157Z,56.10
2022-10-30T02:11:09.536Z,56.10
2022-10-30T02:13:36.847Z,56.00
2022-10-30T02:16:03.963Z,56.20
2022-10-30T02:18:30.758Z,56.00
2022-10-30T02:20:59.078Z,56.20
2022-10-30T02:23:25.836Z,55.90
2022-10-30T02:25:52.593Z,55.80
2022-10-30T02:28:19.409Z,55.70
2022-10-30T02:30:46.197Z,55.50
2022-10-30T02:33:13.112Z,55.50
2022-10-30T02:35:39.966Z,55.90
2022-10-30T02:38:08.101Z,56.20
2022-10-30T02:40:34.901Z,56.60
2022-10-30T02:43:01.744Z,57.20
2022-10-30T02:45:29.113Z,56.50
2022-10-30T02:47:56.447Z,56.70
2022-10-30T02:50:23.408Z,56.50
2022-10-30T02:52:50.133Z,56.60
2022-10-30T02:55:18.716Z,57.10
2022-10-30T02:57:45.502Z,57.10
2022-10-30T03:00:13.404Z,57.20
2022-10-30T03:02:40.207Z,57.30
2022-10-30T03:05:07.626Z,57.90
2022-10-30T03:07:34.397Z,57.40
2022-10-30T03:10:01.151Z,57.10
2022-10-30T03:12:29.322Z,56.80
2022-10-30T03:14:56.094Z,56.80
2022-10-30T03:17:22.825Z,56.80
2022-10-30T03:19:49.540Z,57.30
2022-10-30T03:22:16.307Z,56.70
2022-10-30T03:24:43.100Z,56.50
2022-10-30T03:27:09.914Z,56.40
2022-10-30T03:29:38.001Z,56.20
2022-10-30T03:32:08.249Z,57.70
2022-10-30T03:34:35.102Z,56.60
2022-10-30T03:37:01.886Z,56.30
2022-10-30T03:39:28.641Z,56.10
2022-10-30T03:41:55.421Z,56.00
2022-10-30T03:44:22.263Z,56.10
2022-10-30T03:46:50.385Z,56.30
2022-10-30T03:49:17.162Z,56.20
2022-10-30T03:51:43.923Z,56.10
2022-10-30T03:54:10.687Z,55.90
2022-10-30T03:56:37.411Z,55.90
2022-10-30T03:59:04.180Z,56.20
2022-10-30T04:01:31.103Z,55.90
2022-10-30T04:03:59.247Z,55.70
2022-10-30T04:06:26.168Z,55.60
2022-10-30T04:08:54.712Z,55.50
2022-10-30T04:11:21.562Z,55.40
2022-10-30T04:13:49.555Z,55.30
2022-10-30T04:16:16.352Z,55.30
2022-10-30T04:18:43.231Z,55.10
2022-10-30T04:21:11.377Z,55.20
2022-10-30T04:23:38.141Z,55.30
2022-10-30T04:26:05.108Z,55.20
2022-10-30T04:28:31.894Z,55.30
2022-10-30T04:30:58.824Z,55.10
2022-10-30T04:33:25.778Z,55.30
2022-10-30T04:35:52.510Z,54.90
2022-10-30T04:38:20.619Z,55.10
2022-10-30T04:40:47.337Z,55.60
2022-10-30T04:43:14.695Z,55.80
2022-10-30T04:45:41.708Z,55.50
2022-10-30T04:48:10.633Z,55.30
2022-10-30T04:50:37.666Z,56.00
2022-10-30T04:53:06.878Z,56.00
2022-10-30T04:55:35.059Z,56.50
2022-10-30T04:58:02.182Z,56.30
2022-10-30T05:00:29.663Z,56.10
2022-10-30T05:02:58.965Z,55.80
2022-10-30T05:05:25.750Z,56.30
2022-10-30T05:07:52.559Z,56.40
2022-10-30T05:10:19.479Z,56.20
2022-10-30T05:12:47.638Z,56.10
2022-10-30T05:15:14.943Z,56.20
2022-10-30T05:17:41.733Z,56.10
2022-10-30T05:20:10.564Z,56.00
2022-10-30T05:22:38.905Z,56.20
2022-10-30T05:25:06.496Z,56.40
2022-10-30T05:27:33.294Z,56.40
2022-10-30T05:30:01.372Z,56.30
2022-10-30T05:32:28.142Z,56.20
2022-10-30T05:34:54.894Z,56.40
2022-10-30T05:37:21.666Z,56.20
2022-10-30T05:39:48.393Z,56.00
2022-10-30T05:42:15.158Z,56.00
2022-10-30T05:44:59.974Z,56.20
2022-10-30T05:47:28.970Z,56.20
2022-10-30T05:49:55.715Z,56.00
2022-10-30T05:52:22.484Z,55.90
2022-10-30T05:54:49.302Z,56.10
2022-10-30T05:57:16.077Z,56.40
2022-10-30T05:59:42.779Z,56.10
2022-10-30T06:02:09.695Z,56.10
2022-10-30T06:04:37.837Z,55.80
2022-10-30T06:07:04.621Z,55.90
2022-10-30T06:09:31.352Z,55.90
2022-10-30T06:11:58.531Z,55.90
2022-10-30T06:14:25.383Z,56.00
2022-10-30T06:16:52.184Z,55.90
2022-10-30T06:19:19.200Z,56.10
2022-10-30T06:21:47.706Z,55.80
2022-10-30T06:24:14.752Z,56.00
2022-10-30T06:26:41.642Z,56.10
2022-10-30T06:29:08.441Z,55.80
2022-10-30T06:31:35.280Z,55.70
2022-10-30T06:34:02.088Z,55.70
2022-10-30T06:36:28.859Z,55.70
2022-10-30T06:38:57.344Z,55.60
2022-10-30T06:41:26.141Z,55.60
2022-10-30T06:43:55.982Z,55.60
2022-10-30T06:46:25.652Z,55.70
2022-10-30T06:48:55.838Z,55.80
2022-10-30T06:51:22.870Z,55.90
2022-10-30T06:53:49.658Z,56.00
2022-10-30T06:56:17.826Z,56.10
2022-10-30T06:58:44.546Z,56.10
2022-10-30T07:01:11.334Z,55.90
2022-10-30T07:03:38.116Z,55.90
2022-10-30T07:06:05.300Z,55.90
2022-10-30T07:08:32.092Z,56.30
2022-10-30T07:10:58.827Z,56.40
2022-10-30T07:13:26.918Z,56.50
2022-10-30T07:15:53.697Z,56.50
2022-10-30T07:18:20.503Z,56.50
2022-10-30T07:20:47.287Z,56.80
2022-10-30T07:23:14.021Z,56.70
2022-10-30T07:25:40.843Z,56.60
2022-10-30T07:28:07.570Z,56.50
2022-10-30T07:30:35.918Z,56.60
2022-10-30T07:33:04.979Z,56.80
2022-10-30T07:35:32.863Z,56.90
2022-10-30T07:38:02.939Z,56.80
2022-10-30T07:40:30.156Z,57.00
2022-10-30T07:42:57.606Z,57.70
2022-10-30T07:45:27.425Z,57.90
2022-10-30T07:47:56.244Z,58.10
2022-10-30T07:50:23.641Z,58.30
2022-10-30T07:52:50.481Z,59.50
2022-10-30T07:55:17.436Z,58.90
2022-10-30T07:57:44.158Z,59.40
2022-10-30T08:00:13.552Z,59.30
2022-10-30T08:02:40.824Z,59.10
2022-10-30T08:05:09.882Z,59.20
2022-10-30T08:07:38.440Z,59.60
2022-10-30T08:10:06.401Z,59.60
2022-10-30T08:12:34.182Z,59.10
2022-10-30T08:15:01.154Z,59.20
2022-10-30T08:17:28.012Z,59.60
2022-10-30T08:19:54.785Z,59.60
2022-10-30T08:22:23.197Z,59.70
2022-10-30T08:24:50.047Z,59.90
2022-10-30T08:27:16.896Z,59.70
2022-10-30T08:29:43.665Z,59.70
2022-10-30T08:32:10.413Z,59.60
2022-10-30T08:34:37.178Z,59.70
2022-10-30T08:37:03.938Z,59.60
2022-10-30T08:39:31.981Z,59.60
2022-10-30T08:41:59.073Z,59.60
2022-10-30T08:44:26.377Z,59.70
2022-10-30T08:46:53.294Z,59.50
2022-10-30T08:49:20.035Z,59.60
2022-10-30T08:51:46.839Z,59.60
2022-10-30T08:54:13.702Z,59.50
2022-10-30T08:56:41.856Z,59.50
2022-10-30T08:59:08.595Z,59.60
2022-10-30T09:01:35.424Z,59.40
2022-10-30T09:04:02.747Z,59.40
2022-10-30T09:06:30.810Z,59.00
2022-10-30T09:08:57.575Z,59.10
2022-10-30T09:11:24.525Z,59.00
2022-10-30T09:13:58.796Z,59.00
2022-10-30T09:16:44.178Z,59.80
2022-10-30T09:22:22.771Z,58.70
2022-10-30T09:24:49.709Z,58.60
2022-10-30T09:27:16.565Z,58.40
2022-10-30T09:29:44.706Z,58.40
2022-10-30T09:32:11.583Z,58.40
2022-10-30T09:34:49.606Z,58.20
2022-10-30T09:37:24.934Z,57.80
2022-10-30T09:40:02.007Z,57.50
2022-10-30T09:43:58.592Z,57.00
2022-10-30T09:46:52.669Z,56.10
2022-10-30T09:49:35.244Z,55.20
2022-10-30T09:52:22.095Z,54.90
2022-10-30T09:55:00.875Z,55.50
2022-10-30T09:57:35.118Z,55.40
2022-10-30T10:00:09.297Z,55.20
2022-10-30T10:02:38.340Z,54.90
2022-10-30T10:05:15.392Z,54.90
2022-10-30T10:07:45.860Z,54.60
2022-10-30T10:10:19.979Z,54.10
2022-10-30T10:12:49.901Z,54.40
2022-10-30T10:15:25.487Z,54.20
2022-10-30T10:17:53.394Z,54.40
2022-10-30T10:20:32.094Z,54.00
2022-10-30T10:23:02.460Z,54.30
2022-10-30T10:25:30.981Z,54.10
2022-10-30T10:28:07.417Z,53.50
2022-10-30T10:30:47.171Z,53.40
2022-10-30T10:33:32.777Z,53.10
2022-10-30T10:36:10.036Z,52.70
2022-10-30T10:38:46.806Z,52.20
2022-10-30T10:41:24.995Z,51.80
2022-10-30T10:44:07.308Z,52.00
2022-10-30T10:46:46.543Z,52.00
2022-10-30T10:49:38.992Z,51.90
2022-10-30T10:52:12.253Z,50.90
2022-10-30T10:54:43.807Z,50.20
2022-10-30T10:57:17.586Z,50.10
2022-10-30T10:59:47.683Z,49.60
2022-10-30T11:02:30.773Z,49.80
2022-10-30T11:05:05.868Z,50.30
2022-10-30T11:07:38.459Z,49.40
2022-10-30T11:10:12.629Z,50.70
2022-10-30T11:12:39.378Z,49.90
2022-10-30T11:15:32.943Z,49.00
2022-10-30T11:18:02.299Z,48.70
2022-10-30T11:20:37.083Z,47.70
2022-10-30T11:23:39.844Z,48.30
2022-10-30T11:26:42.139Z,46.40
2022-10-30T11:29:13.776Z,46.70
2022-10-30T11:31:41.665Z,45.90
2022-10-30T11:34:28.762Z,46.50
2022-10-30T11:36:55.493Z,46.20
2022-10-30T11:39:25.441Z,46.00
2022-10-30T11:41:58.347Z,46.30
2022-10-30T11:44:30.256Z,46.60
2022-10-30T11:46:57.712Z,46.30
2022-10-30T11:49:28.262Z,45.70
2022-10-30T11:51:55.139Z,44.90
2022-10-30T11:54:23.414Z,44.90
2022-10-30T11:56:51.441Z,44.70
2022-10-30T11:59:21.444Z,46.20
2022-10-30T12:01:59.799Z,46.70
2022-10-30T12:04:28.684Z,46.30
2022-10-30T12:07:08.722Z,46.30
2022-10-30T12:09:44.470Z,46.30
2022-10-30T12:12:12.801Z,45.00
2022-10-30T12:14:39.650Z,45.00
2022-10-30T12:17:06.585Z,45.40
2022-10-30T12:19:34.855Z,45.30
2022-10-30T12:22:05.282Z,43.90
2022-10-30T12:24:42.179Z,44.00
2022-10-30T12:27:19.694Z,43.70
2022-10-30T12:30:09.937Z,43.00
2022-10-30T12:32:45.478Z,43.80
2022-10-30T12:35:36.009Z,43.70
2022-10-30T12:38:05.850Z,43.80
2022-10-30T12:40:40.549Z,42.70
2022-10-30T12:43:16.311Z,43.30
2022-10-30T12:45:45.726Z,43.20
2022-10-30T12:48:18.295Z,43.20
2022-10-30T12:50:53.534Z,43.00
2022-10-30T12:53:30.060Z,43.40
2022-10-30T12:56:01.499Z,43.20
2022-10-30T12:58:37.862Z,43.50
2022-10-30T13:01:14.491Z,42.40
2022-10-30T13:03:46.194Z,42.90
2022-10-30T13:06:17.352Z,42.70
2022-10-30T13:08:52.978Z,43.00
2022-10-30T13:11:36.265Z,42.90
2022-10-30T13:14:08.279Z,42.80
2022-10-30T13:17:05.898Z,43.10
2022-10-30T13:19:24.289Z,42.80
2022-10-30T13:23:03.699Z,42.70
2022-10-30T13:25:00.779Z,42.00
2022-10-30T13:27:38.933Z,42.30
2022-10-30T13:30:12.854Z,43.40
2022-10-30T13:32:50.398Z,43.80
2022-10-30T13:35:31.537Z,43.90
2022-10-30T13:38:06.051Z,43.10
2022-10-30T13:40:39.513Z,42.80
2022-10-30T13:43:21.277Z,43.70
2022-10-30T13:46:00.067Z,44.10
2022-10-30T13:48:41.572Z,43.70
2022-10-30T13:51:25.979Z,43.70
2022-10-30T13:54:01.952Z,44.60
2022-10-30T13:56:29.370Z,43.30
2022-10-30T13:59:08.501Z,43.20
2022-10-30T14:01:43.133Z,43.20
2022-10-30T14:04:16.027Z,43.70
2022-10-30T14:06:49.928Z,43.70
2022-10-30T14:09:24.114Z,43.70
2022-10-30T14:11:53.037Z,44.60
2022-10-30T14:14:30.680Z,44.20
2022-10-30T14:17:13.546Z,44.90
2022-10-30T14:20:17.699Z,45.60
2022-10-30T14:23:08.630Z,46.40
2022-10-30T14:25:35.548Z,46.70
2022-10-30T14:28:02.754Z,46.50
2022-10-30T14:30:29.739Z,46.80
2022-10-30T14:32:57.929Z,46.20
2022-10-30T14:35:30.987Z,45.80
2022-10-30T14:37:58.079Z,46.60
2022-10-30T14:40:37.469Z,46.80
2022-10-30T14:43:09.774Z,46.70
2022-10-30T14:45:43.216Z,46.90
2022-10-30T14:48:18.376Z,47.10
2022-10-30T14:50:56.648Z,47.60
2022-10-30T14:53:50.735Z,47.90
2022-10-30T14:56:26.513Z,48.30
2022-10-30T14:59:19.597Z,48.50
2022-10-30T15:01:50.722Z,48.90
2022-10-30T15:04:25.844Z,49.30
2022-10-30T15:07:01.701Z,49.50
2022-10-30T15:09:45.182Z,49.50
2022-10-30T15:12:25.371Z,49.40
2022-10-30T15:14:56.852Z,49.10
2022-10-30T15:17:28.871Z,49.00
2022-10-30T15:19:59.869Z,48.60
2022-10-30T15:22:28.561Z,48.60
2022-10-30T15:24:55.866Z,49.10
2022-10-30T15:27:25.177Z,49.50
2022-10-30T15:29:55.219Z,49.40
2022-10-30T15:32:23.895Z,49.40
2022-10-30T15:35:00.176Z,49.60
2022-10-30T15:37:27.803Z,49.60
2022-10-30T15:40:11.937Z,49.80
2022-10-30T15:42:39.514Z,49.30
2022-10-30T15:45:11.934Z,49.40
2022-10-30T15:47:46.109Z,49.20
2022-10-30T15:50:16.017Z,49.50
2022-10-30T15:52:43.756Z,49.70
2022-10-30T15:55:15.105Z,49.90
2022-10-30T16:00:35.051Z,50.10
2022-10-30T16:03:04.600Z,50.30
2022-10-30T16:05:33.787Z,50.40
2022-10-30T16:08:02.634Z,50.40
2022-10-30T16:10:33.278Z,50.50
2022-10-30T16:13:01.041Z,51.30
2022-10-30T16:15:29.886Z,50.60
2022-10-30T16:18:08.483Z,50.90
2022-10-30T16:20:40.551Z,50.70
2022-10-30T16:23:07.783Z,50.90
2022-10-30T16:25:34.929Z,50.90
2022-10-30T16:28:02.290Z,51.00
2022-10-30T16:30:29.595Z,50.90
2022-10-30T16:32:56.637Z,51.10
2022-10-30T16:35:24.876Z,51.10
2022-10-30T16:37:53.587Z,51.10
2022-10-30T16:40:24.606Z,51.30
2022-10-30T16:42:56.206Z,51.30
2022-10-30T16:45:48.794Z,51.30
2022-10-30T16:48:23.162Z,51.20
2022-10-30T16:50:49.997Z,51.50
2022-10-30T16:53:22.128Z,51.60
2022-10-30T16:55:49.163Z,51.70
2022-10-30T16:58:16.908Z,51.60
2022-10-30T17:00:49.729Z,51.70
2022-10-30T17:03:19.411Z,51.70
2022-10-30T17:05:57.479Z,52.00
2022-10-30T17:08:36.594Z,51.80
2022-10-30T17:11:05.078Z,51.90
2022-10-30T17:13:34.795Z,52.00
2022-10-30T17:16:23.394Z,52.10
2022-10-30T17:18:51.724Z,52.00
2022-10-30T17:21:21.912Z,52.40
2022-10-30T17:23:51.954Z,52.20
2022-10-30T17:26:18.906Z,52.10
2022-10-30T17:28:47.054Z,52.20
2022-10-30T17:31:25.609Z,52.20
2022-10-30T17:34:12.091Z,52.40
2022-10-30T17:36:38.876Z,52.30
2022-10-30T17:39:07.026Z,52.50
2022-10-30T17:41:34.190Z,52.50
2022-10-30T17:44:01.234Z,52.60
2022-10-30T17:46:28.226Z,52.50
2022-10-30T17:48:56.455Z,52.50
2022-10-30T17:51:23.225Z,52.50
2022-10-30T17:53:50.188Z,52.50
2022-10-30T17:56:23.063Z,52.60
2022-10-30T17:58:49.765Z,52.60
2022-10-30T18:01:18.603Z,52.70
2022-10-30T18:03:45.534Z,52.80
2022-10-30T18:06:16.459Z,52.80
2022-10-30T18:08:46.383Z,52.80
2022-10-30T18:11:19.317Z,52.90
2022-10-30T18:13:47.187Z,52.90
2022-10-30T18:16:15.224Z,53.10
2022-10-30T18:18:42.327Z,53.00
2022-10-30T18:21:12.527Z,53.00
2022-10-30T18:23:51.773Z,53.00
2022-10-30T18:26:22.811Z,53.10
2022-10-30T18:28:49.939Z,53.30
2022-10-30T18:31:18.285Z,53.30
2022-10-30T18:33:45.477Z,53.50
2022-10-30T18:36:13.530Z,53.50
2022-10-30T18:38:40.658Z,53.50
2022-10-30T18:41:13.453Z,53.60
2022-10-30T18:43:45.647Z,53.60
2022-10-30T18:46:15.343Z,53.70
2022-10-30T18:48:42.131Z,53.80
2022-10-30T18:51:16.161Z,53.80
2022-10-30T18:53:42.920Z,53.90
2022-10-30T18:56:10.057Z,53.80
2022-10-30T18:58:36.849Z,53.90
2022-10-30T19:01:13.088Z,53.80
2022-10-30T19:03:39.901Z,53.80
2022-10-30T19:06:10.966Z,54.00
2022-10-30T19:08:37.718Z,54.10
2022-10-30T19:11:04.677Z,54.10
2022-10-30T19:13:31.493Z,54.10
2022-10-30T19:16:00.672Z,54.00
2022-10-30T19:18:29.220Z,54.10
2022-10-30T19:21:04.485Z,54.10
2022-10-30T19:23:33.352Z,54.00
2022-10-30T19:26:00.200Z,54.10
2022-10-30T19:28:27.104Z,54.10
2022-10-30T19:30:53.903Z,54.00
2022-10-30T19:33:22.800Z,54.00
2022-10-30T19:35:54.885Z,54.00
2022-10-30T19:38:21.915Z,54.00
2022-10-30T19:40:49.203Z,54.10
2022-10-30T19:43:15.969Z,54.10
2022-10-30T19:45:42.959Z,54.10
2022-10-30T19:48:14.461Z,54.10
2022-10-30T19:50:42.937Z,54.20
2022-10-30T19:53:11.673Z,54.20
2022-10-30T19:55:39.954Z,54.10
2022-10-30T19:58:10.205Z,54.20
2022-10-30T20:00:38.459Z,54.20
2022-10-30T20:03:06.552Z,54.20
2022-10-30T20:05:35.572Z,54.30
2022-10-30T20:08:04.763Z,54.30
2022-10-30T20:10:34.801Z,54.30
2022-10-30T20:13:01.621Z,54.40
2022-10-30T20:15:28.451Z,54.30
2022-10-30T20:17:55.544Z,54.30
2022-10-30T20:20:25.001Z,54.40
2022-10-30T20:22:52.127Z,54.40
2022-10-30T20:25:19.687Z,54.30
2022-10-30T20:27:48.815Z,54.30
2022-10-30T20:30:18.945Z,54.30
2022-10-30T20:32:45.922Z,54.40
2022-10-30T20:35:13.639Z,54.30
2022-10-30T20:37:41.430Z,54.30
2022-10-30T20:40:14.312Z,54.90
2022-10-30T20:42:41.775Z,54.20
2022-10-30T20:45:15.522Z,54.30
2022-10-30T20:47:42.898Z,54.20
2022-10-30T20:50:10.096Z,54.20
2022-10-30T20:52:36.925Z,54.30
2022-10-30T20:55:04.176Z,54.40
2022-10-30T20:57:30.936Z,54.40
2022-10-30T20:59:57.795Z,54.30
2022-10-30T21:02:26.057Z,54.30
2022-10-30T21:04:52.816Z,54.30
2022-10-30T21:07:19.608Z,54.30
2022-10-30T21:09:46.333Z,54.20
2022-10-30T21:12:13.164Z,54.30
2022-10-30T21:14:39.866Z,54.20
2022-10-30T21:17:06.589Z,54.30
2022-10-30T21:19:34.739Z,54.50
2022-10-30T21:22:01.701Z,54.30
2022-10-30T21:24:28.464Z,54.30
2022-10-30T21:26:55.375Z,54.30
2022-10-30T21:29:22.108Z,54.40
2022-10-30T21:31:48.881Z,54.50
2022-10-30T21:34:16.500Z,54.40
2022-10-30T21:36:44.631Z,54.40
2022-10-30T21:39:11.364Z,54.30
2022-10-30T21:41:38.116Z,54.30
2022-10-30T21:44:05.012Z,54.30
2022-10-30T21:46:32.030Z,54.30
2022-10-30T21:49:03.577Z,54.30
2022-10-30T21:51:30.330Z,54.30
2022-10-30T21:53:58.521Z,54.40
2022-10-30T21:56:26.998Z,54.20
2022-10-30T21:58:55.376Z,54.10
2022-10-30T22:01:23.949Z,54.10
2022-10-30T22:03:51.124Z,54.10
2022-10-30T22:06:19.173Z,54.10
2022-10-30T22:08:46.346Z,54.10
2022-10-30T22:11:14.446Z,54.30
2022-10-30T22:13:41.535Z,54.10
2022-10-30T22:16:11.534Z,54.20
2022-10-30T22:18:38.462Z,54.10
2022-10-30T22:21:07.381Z,54.10
2022-10-30T22:23:35.456Z,54.10
2022-10-30T22:26:04.135Z,54.10
2022-10-30T22:28:33.171Z,54.00
2022-10-30T22:31:03.654Z,54.20
2022-10-30T22:33:31.370Z,54.20
2022-10-30T22:36:02.030Z,54.00
2022-10-30T22:38:28.774Z,53.90
2022-10-30T22:40:55.470Z,54.20
2022-10-30T22:43:22.249Z,53.90
2022-10-30T22:45:53.988Z,53.90
2022-10-30T22:48:20.683Z,53.80
2022-10-30T22:50:47.392Z,54.00
2022-10-30T22:53:14.110Z,53.90
2022-10-30T22:55:40.883Z,54.00
2022-10-30T22:58:07.657Z,53.80
2022-10-30T23:00:34.374Z,53.80
2022-10-30T23:03:02.849Z,53.80
2022-10-30T23:05:29.970Z,53.90
2022-10-30T23:07:56.702Z,53.80
2022-10-30T23:10:23.489Z,53.80
2022-10-30T23:12:50.906Z,54.40
2022-10-30T23:15:17.660Z,55.10
2022-10-30T23:17:44.399Z,55.70
2022-10-30T23:20:12.516Z,56.10
2022-10-30T23:22:39.247Z,56.70
2022-10-30T23:25:06.241Z,56.70
2022-10-30T23:27:33.047Z,57.00
2022-10-30T23:29:59.788Z,57.30
2022-10-30T23:32:26.598Z,57.90
2022-10-30T23:34:53.308Z,58.80
2022-10-30T23:37:21.375Z,58.70
2022-10-30T23:39:48.120Z,58.50
2022-10-30T23:42:15.250Z,58.20
2022-10-30T23:44:41.939Z,58.10
2022-10-30T23:47:08.736Z,58.20
2022-10-30T23:49:35.435Z,57.70
2022-10-30T23:52:02.190Z,57.60
2022-10-30T23:54:30.291Z,57.50
2022-10-30T23:56:57.063Z,57.40
2022-10-30T23:59:23.802Z,57.90
